Time;durP1;ratioP1;P1;durP2;ratioP2;P2;SDS_P1;SDS_P2;PMS_P1;PMS_P2;Temp;Humidity;BMP_temperature;BMP_pressure;BME280_temperature;BME280_humidity;BME280_pressure;Samples;Min_cycle;Max_cycle;Signal;HPM_P1;HPM_P2
2021/11/05 00:02:06;;;;;;;5.90;5.40;;;6.80;99.90;;;;;;5055039;28;20233;-91
2021/11/05 00:04:32;;;;;;;6.70;5.50;;;6.80;99.90;;;;;;5022315;28;20291;-91
2021/11/05 00:06:59;;;;;;;6.50;5.90;;;6.90;99.90;;;;;;5052279;28;20184;-91
2021/11/05 00:09:25;;;;;;;5.60;5.00;;;6.70;99.90;;;;;;5051293;28;20188;-91
2021/11/05 00:11:51;;;;;;;5.23;4.83;;;6.80;99.90;;;;;;5056868;28;20200;-91
2021/11/05 00:14:17;;;;;;;5.60;5.10;;;6.70;99.90;;;;;;5020886;28;20204;-91
2021/11/05 00:16:43;;;;;;;6.10;5.50;;;6.70;99.90;;;;;;5022557;28;20210;-91
2021/11/05 00:19:09;;;;;;;6.07;5.47;;;6.70;99.90;;;;;;5020271;28;20211;-92
2021/11/05 00:21:34;;;;;;;5.67;5.00;;;6.70;99.90;;;;;;5046315;28;20236;-93
2021/11/05 00:24:00;;;;;;;5.60;5.10;;;6.70;99.90;;;;;;5027198;28;20193;-91
2021/11/05 00:26:26;;;;;;;5.97;5.23;;;6.80;99.90;;;;;;5037682;28;20289;-90
2021/11/05 00:28:51;;;;;;;5.70;5.10;;;6.80;99.90;;;;;;5013975;28;20184;-91
2021/11/05 00:31:17;;;;;;;5.97;5.47;;;6.70;99.90;;;;;;5052932;28;20260;-91
2021/11/05 00:33:43;;;;;;;5.20;4.80;;;6.60;99.90;;;;;;5021541;28;20191;-91
2021/11/05 00:36:13;;;;;;;6.00;5.43;;;6.60;99.90;;;;;;5039269;28;20184;-91
2021/11/05 00:38:44;;;;;;;5.90;5.40;;;6.60;99.90;;;;;;5054422;28;20196;-91
2021/11/05 00:41:11;;;;;;;6.40;5.73;;;6.70;99.90;;;;;;5035863;28;20211;-92
2021/11/05 00:43:37;;;;;;;7.90;5.83;;;6.70;99.90;;;;;;5037015;28;20208;-91
2021/11/05 00:46:04;;;;;;;6.20;5.60;;;6.70;99.90;;;;;;5037947;28;20212;-91
2021/11/05 00:48:30;;;;;;;5.97;5.37;;;6.70;99.90;;;;;;5038209;28;20639;-92
2021/11/05 00:50:56;;;;;;;7.10;5.87;;;6.60;99.90;;;;;;5055211;28;20189;-92
2021/11/05 00:53:22;;;;;;;6.10;5.50;;;6.70;99.90;;;;;;5054686;28;20203;-91
2021/11/05 00:55:47;;;;;;;6.57;5.97;;;6.70;99.90;;;;;;5039974;28;20214;-91
2021/11/05 00:58:13;;;;;;;5.67;5.17;;;6.60;99.90;;;;;;5056801;28;20503;-91
2021/11/05 01:00:39;;;;;;;5.60;5.10;;;6.60;99.90;;;;;;5037584;28;20193;-91
2021/11/05 01:03:05;;;;;;;5.90;5.40;;;6.70;99.90;;;;;;5027609;28;20230;-91
2021/11/05 01:05:32;;;;;;;6.17;5.57;;;6.70;99.90;;;;;;5038596;28;20520;-92
2021/11/05 01:07:58;;;;;;;6.80;6.10;;;6.70;99.90;;;;;;5055448;28;20175;-91
2021/11/05 01:10:24;;;;;;;5.50;5.00;;;6.60;99.90;;;;;;5018866;28;20449;-91
2021/11/05 01:12:50;;;;;;;6.30;5.67;;;6.50;99.90;;;;;;5034189;28;20215;-91
2021/11/05 01:15:16;;;;;;;11.70;6.00;;;6.60;99.90;;;;;;5054086;28;20188;-91
2021/11/05 01:17:43;;;;;;;6.37;5.73;;;6.60;99.90;;;;;;5029505;28;20205;-91
2021/11/05 01:20:12;;;;;;;6.03;5.53;;;6.60;99.90;;;;;;5041996;28;20211;-91
2021/11/05 01:22:38;;;;;;;5.63;4.90;;;6.60;99.90;;;;;;5054570;28;20212;-91
2021/11/05 01:25:05;;;;;;;5.90;5.40;;;6.60;99.90;;;;;;5049509;28;20230;-91
2021/11/05 01:27:30;;;;;;;5.90;5.37;;;6.50;99.90;;;;;;5044485;28;20670;-91
2021/11/05 01:29:59;;;;;;;6.37;5.67;;;6.50;99.90;;;;;;5033185;28;20266;-91
2021/11/05 01:32:26;;;;;;;6.03;5.43;;;6.50;99.90;;;;;;5020157;28;20610;-91
2021/11/05 01:34:52;;;;;;;6.03;5.43;;;6.50;99.90;;;;;;5039719;28;20192;-91
2021/11/05 01:37:18;;;;;;;4.73;4.33;;;6.60;99.90;;;;;;5036950;28;20242;-92
2021/11/05 01:39:44;;;;;;;5.50;5.00;;;6.70;99.90;;;;;;5054191;28;20180;-91
2021/11/05 01:42:10;;;;;;;5.90;4.83;;;6.60;99.90;;;;;;5030921;28;20212;-92
2021/11/05 01:44:36;;;;;;;6.30;4.93;;;6.60;99.90;;;;;;5024334;28;20346;-92
2021/11/05 01:47:02;;;;;;;5.17;4.60;;;6.70;99.90;;;;;;5054035;28;20196;-92
2021/11/05 01:49:28;;;;;;;5.53;4.63;;;6.60;99.90;;;;;;5044877;28;20212;-92
2021/11/05 01:51:55;;;;;;;4.87;4.47;;;6.60;99.90;;;;;;5044469;28;20254;-92
2021/11/05 01:54:21;;;;;;;5.00;4.60;;;6.70;99.90;;;;;;5014687;28;20602;-92
2021/11/05 01:56:48;;;;;;;5.97;4.77;;;6.80;99.90;;;;;;5049331;28;20192;-93
2021/11/05 01:59:39;;;;;;;4.83;4.43;;;6.80;99.90;;;;;;5017595;28;20642;-92
2021/11/05 02:02:07;;;;;;;4.87;4.20;;;6.70;99.90;;;;;;5032180;28;20306;-92
2021/11/05 02:04:36;;;;;;;5.00;4.50;;;6.70;99.90;;;;;;5018391;28;20231;-94
2021/11/05 02:07:02;;;;;;;4.67;4.27;;;6.60;99.90;;;;;;5045316;28;20311;-93
2021/11/05 02:09:29;;;;;;;6.57;4.27;;;6.70;99.90;;;;;;5012340;28;20192;-93
2021/11/05 02:11:58;;;;;;;4.47;4.00;;;6.70;99.90;;;;;;5016637;28;20765;-93
2021/11/05 02:14:25;;;;;;;5.63;3.97;;;6.70;99.90;;;;;;5054233;28;20180;-92
2021/11/05 02:16:56;;;;;;;5.50;3.77;;;6.80;99.90;;;;;;5027351;28;20192;-93
2021/11/05 02:19:24;;;;;;;5.00;4.50;;;6.70;99.90;;;;;;5045522;28;20192;-92
2021/11/05 02:21:53;;;;;;;4.40;4.10;;;6.70;99.90;;;;;;5035437;28;20205;-93
2021/11/05 02:24:20;;;;;;;4.40;4.00;;;6.80;99.90;;;;;;5054230;28;20200;-92
2021/11/05 02:26:46;;;;;;;5.13;4.63;;;6.70;99.90;;;;;;5043983;28;20215;-92
2021/11/05 02:29:12;;;;;;;3.97;3.57;;;6.70;99.90;;;;;;5019024;28;20180;-93
2021/11/05 02:31:39;;;;;;;3.83;3.53;;;6.80;99.90;;;;;;5049352;28;20200;-93
2021/11/05 02:34:05;;;;;;;4.50;4.10;;;6.90;99.90;;;;;;5053727;28;20694;-92
2021/11/05 02:36:31;;;;;;;4.47;4.03;;;6.80;99.90;;;;;;5054091;28;20192;-92
2021/11/05 02:38:58;;;;;;;5.10;4.30;;;6.80;99.90;;;;;;5021815;28;20188;-93
2021/11/05 02:41:24;;;;;;;4.10;3.70;;;6.70;99.90;;;;;;5037199;28;20715;-93
2021/11/05 02:43:51;;;;;;;4.57;3.50;;;6.80;99.90;;;;;;5033407;28;20267;-93
2021/11/05 02:46:16;;;;;;;4.27;3.90;;;6.90;99.90;;;;;;5051988;28;20652;-92
2021/11/05 02:48:42;;;;;;;4.47;3.87;;;6.90;99.90;;;;;;5020901;28;20198;-92
2021/11/05 02:51:09;;;;;;;4.63;4.07;;;6.90;99.90;;;;;;5020121;28;20287;-92
2021/11/05 02:53:36;;;;;;;5.07;4.43;;;6.80;99.90;;;;;;5035098;28;20194;-93
2021/11/05 02:56:02;;;;;;;5.13;4.70;;;6.90;99.90;;;;;;5019025;28;20299;-92
2021/11/05 02:58:28;;;;;;;4.87;4.47;;;6.90;99.90;;;;;;5031303;28;20200;-92
2021/11/05 03:00:55;;;;;;;4.90;4.37;;;6.80;99.90;;;;;;5035023;28;20189;-93
2021/11/05 03:03:20;;;;;;;5.00;4.47;;;6.80;99.90;;;;;;5053339;28;20196;-93
2021/11/05 03:05:46;;;;;;;4.63;4.23;;;6.80;99.90;;;;;;5022120;28;20295;-92
2021/11/05 03:08:12;;;;;;;5.10;4.60;;;6.80;99.90;;;;;;5046136;28;20180;-93
2021/11/05 03:10:37;;;;;;;5.23;4.73;;;6.70;99.90;;;;;;5053405;28;20191;-93
2021/11/05 03:13:03;;;;;;;4.90;4.50;;;6.70;99.90;;;;;;5033012;28;20208;-92
2021/11/05 03:15:29;;;;;;;4.40;4.00;;;6.70;99.90;;;;;;5033802;28;20211;-92
2021/11/05 03:17:59;;;;;;;5.40;4.47;;;6.70;99.90;;;;;;5032200;28;20587;-93
2021/11/05 03:20:25;;;;;;;4.73;4.23;;;6.70;99.90;;;;;;5035592;28;20207;-92
2021/11/05 03:22:51;;;;;;;5.63;5.03;;;6.80;99.90;;;;;;5020611;28;20215;-92
2021/11/05 03:25:17;;;;;;;4.77;4.37;;;6.70;99.90;;;;;;5049202;28;20295;-93
2021/11/05 03:27:43;;;;;;;7.07;5.87;;;6.70;99.90;;;;;;5019958;28;20646;-92
2021/11/05 03:30:11;;;;;;;5.77;4.93;;;6.80;99.90;;;;;;5018854;28;20331;-93
2021/11/05 03:32:37;;;;;;;5.20;4.70;;;6.70;99.90;;;;;;5009947;28;20250;-92
2021/11/05 03:35:05;;;;;;;5.50;5.00;;;6.70;99.90;;;;;;5053274;28;20655;-93
2021/11/05 03:37:31;;;;;;;5.17;4.77;;;6.80;99.90;;;;;;5032798;28;20218;-93
2021/11/05 03:39:56;;;;;;;7.40;4.73;;;6.80;99.90;;;;;;5036920;28;20188;-93
2021/11/05 03:42:22;;;;;;;5.83;4.10;;;6.90;99.90;;;;;;5051655;28;20204;-93
2021/11/05 03:44:48;;;;;;;4.87;4.47;;;6.80;99.90;;;;;;5023630;28;20251;-93
2021/11/05 03:47:14;;;;;;;4.43;4.03;;;6.90;99.90;;;;;;5052032;28;20203;-93
2021/11/05 03:49:39;;;;;;;4.67;4.20;;;7.00;99.90;;;;;;5047335;28;20452;-93
2021/11/05 03:52:05;;;;;;;4.73;4.33;;;6.90;99.90;;;;;;5019647;28;20204;-92
2021/11/05 03:54:31;;;;;;;5.47;4.97;;;6.90;99.90;;;;;;5019953;28;20181;-93
2021/11/05 03:56:57;;;;;;;5.30;4.53;;;6.90;99.90;;;;;;5016315;28;20200;-94
2021/11/05 03:59:22;;;;;;;5.43;4.97;;;6.80;99.90;;;;;;5052036;28;20596;-92
2021/11/05 04:01:48;;;;;;;6.03;5.00;;;6.80;99.90;;;;;;5052539;28;20212;-93
2021/11/05 04:04:14;;;;;;;5.30;4.90;;;6.90;99.90;;;;;;5011739;28;20188;-92
2021/11/05 04:06:40;;;;;;;5.50;5.00;;;7.00;99.90;;;;;;5052435;28;20271;-92
2021/11/05 04:09:06;;;;;;;5.60;5.10;;;7.00;99.90;;;;;;5044080;28;20571;-92
2021/11/05 04:11:32;;;;;;;6.10;5.50;;;6.90;99.90;;;;;;5049964;28;20232;-92
2021/11/05 04:13:58;;;;;;;5.40;4.90;;;6.90;99.90;;;;;;5034930;28;20195;-93
2021/11/05 04:16:24;;;;;;;5.87;5.37;;;6.90;99.90;;;;;;5024269;28;20204;-92
2021/11/05 04:18:49;;;;;;;5.60;5.10;;;6.90;99.90;;;;;;5032155;28;20188;-93
2021/11/05 04:21:15;;;;;;;5.90;5.40;;;7.00;99.90;;;;;;5047347;28;20660;-92
2021/11/05 04:23:42;;;;;;;5.47;4.97;;;7.00;99.90;;;;;;5053094;28;20193;-92
2021/11/05 04:26:08;;;;;;;5.67;5.17;;;7.00;99.90;;;;;;5053708;28;20236;-93
2021/11/05 04:28:34;;;;;;;6.10;5.50;;;7.00;99.90;;;;;;5046514;28;20257;-93
2021/11/05 04:31:00;;;;;;;6.50;5.40;;;7.00;99.90;;;;;;5018955;28;20513;-93
2021/11/05 04:33:27;;;;;;;5.63;5.13;;;6.90;99.90;;;;;;5053370;28;20310;-93
2021/11/05 04:35:52;;;;;;;6.13;4.87;;;6.90;99.90;;;;;;5036663;28;20704;-93
2021/11/05 04:38:19;;;;;;;5.43;4.93;;;6.90;99.90;;;;;;5036412;28;20230;-93
2021/11/05 04:40:45;;;;;;;6.10;5.60;;;6.90;99.90;;;;;;5040631;28;20196;-92
2021/11/05 04:43:10;;;;;;;6.93;5.50;;;6.80;99.90;;;;;;5019278;28;20349;-93
2021/11/05 04:45:36;;;;;;;5.93;5.43;;;7.00;99.90;;;;;;5022924;28;20215;-92
2021/11/05 04:48:02;;;;;;;6.03;5.43;;;7.00;99.90;;;;;;5026618;28;20200;-93
2021/11/05 04:50:28;;;;;;;5.90;5.40;;;6.90;99.90;;;;;;5021796;28;20203;-93
2021/11/05 04:52:54;;;;;;;5.70;5.20;;;7.00;99.90;;;;;;5016176;28;20986;-92
2021/11/05 04:55:21;;;;;;;7.20;5.37;;;7.00;99.90;;;;;;5039853;28;20184;-92
2021/11/05 04:57:49;;;;;;;6.07;5.47;;;7.10;99.90;;;;;;5026867;28;20200;-93
2021/11/05 05:00:16;;;;;;;6.50;6.00;;;7.00;99.90;;;;;;5046314;28;20188;-92
2021/11/05 05:02:42;;;;;;;6.43;5.70;;;6.90;99.90;;;;;;5018374;28;20212;-93
2021/11/05 05:05:08;;;;;;;6.23;5.67;;;6.90;99.90;;;;;;5042919;28;20222;-93
2021/11/05 05:07:34;;;;;;;6.73;6.13;;;6.90;99.90;;;;;;5042024;28;20185;-93
2021/11/05 05:10:00;;;;;;;6.57;5.77;;;7.00;99.90;;;;;;5020903;28;20549;-92
2021/11/05 05:12:25;;;;;;;6.67;6.10;;;7.10;99.90;;;;;;5014261;28;20219;-93
2021/11/05 05:14:51;;;;;;;6.07;5.47;;;7.00;99.90;;;;;;5016376;28;20272;-93
2021/11/05 05:17:17;;;;;;;7.50;6.80;;;6.90;99.90;;;;;;5018142;28;20254;-93
2021/11/05 05:19:43;;;;;;;7.63;6.30;;;6.90;99.90;;;;;;5047192;28;20196;-92
2021/11/05 05:22:09;;;;;;;6.30;5.73;;;6.90;99.90;;;;;;5039416;28;20223;-92
2021/11/05 05:24:36;;;;;;;7.30;6.60;;;7.00;99.90;;;;;;5038485;28;20240;-92
2021/11/05 05:27:02;;;;;;;7.63;6.93;;;7.00;99.90;;;;;;5040646;28;20199;-93
2021/11/05 05:29:28;;;;;;;6.60;6.00;;;7.00;99.90;;;;;;5030295;28;20232;-92
2021/11/05 05:31:53;;;;;;;7.70;7.00;;;7.20;99.90;;;;;;5031556;28;20212;-92
2021/11/05 05:34:19;;;;;;;7.23;6.53;;;7.10;99.90;;;;;;5039860;28;20206;-92
2021/11/05 05:36:45;;;;;;;8.30;7.20;;;7.10;99.90;;;;;;5039644;28;20242;-93
2021/11/05 05:39:11;;;;;;;9.53;7.20;;;7.10;99.90;;;;;;5040119;28;20203;-92
2021/11/05 05:41:37;;;;;;;7.80;7.10;;;7.20;99.90;;;;;;5041089;28;20271;-92
2021/11/05 05:44:03;;;;;;;7.20;6.60;;;7.00;99.90;;;;;;5042620;28;20227;-92
2021/11/05 05:46:29;;;;;;;7.17;6.50;;;7.00;99.90;;;;;;5059003;28;20219;-92
2021/11/05 05:48:55;;;;;;;8.10;7.27;;;6.90;99.90;;;;;;5024805;28;20189;-93
2021/11/05 05:51:20;;;;;;;6.83;6.23;;;7.10;99.90;;;;;;5021844;28;20697;-93
2021/11/05 05:53:46;;;;;;;7.33;6.63;;;7.10;99.90;;;;;;5036475;28;20216;-92
2021/11/05 05:56:13;;;;;;;7.70;7.00;;;7.10;99.90;;;;;;5037608;28;20208;-92
2021/11/05 05:58:39;;;;;;;7.67;6.97;;;7.00;99.90;;;;;;5054065;28;20199;-92
2021/11/05 06:01:05;;;;;;;7.70;7.00;;;7.10;99.90;;;;;;5047570;28;20227;-92
2021/11/05 06:03:31;;;;;;;7.57;6.87;;;7.10;99.90;;;;;;5045627;28;20192;-93
2021/11/05 06:05:56;;;;;;;7.17;6.57;;;7.00;99.90;;;;;;5055137;28;20200;-93
2021/11/05 06:08:23;;;;;;;7.53;6.83;;;6.90;99.90;;;;;;5018094;28;20196;-94
2021/11/05 06:10:49;;;;;;;10.43;7.33;;;7.10;99.90;;;;;;5032941;28;20192;-92
2021/11/05 06:13:15;;;;;;;8.57;7.67;;;6.90;99.90;;;;;;5037513;28;20204;-93
2021/11/05 06:15:40;;;;;;;8.57;7.77;;;6.80;99.90;;;;;;5038999;28;20181;-93
2021/11/05 06:18:07;;;;;;;8.17;7.47;;;6.90;99.90;;;;;;5031303;28;20228;-92
2021/11/05 06:20:33;;;;;;;9.30;7.80;;;6.90;99.90;;;;;;5052954;28;20639;-93
2021/11/05 06:22:58;;;;;;;8.47;7.77;;;6.90;99.90;;;;;;5036113;28;20781;-93
2021/11/05 06:25:24;;;;;;;9.10;8.20;;;7.00;99.90;;;;;;5038968;28;20612;-93
2021/11/05 06:27:50;;;;;;;8.83;8.00;;;7.00;99.90;;;;;;5020959;28;20184;-93
2021/11/05 06:30:16;;;;;;;8.20;7.50;;;7.00;99.90;;;;;;5036280;28;20219;-93
2021/11/05 06:32:42;;;;;;;9.90;8.50;;;7.00;99.90;;;;;;5038224;28;20215;-92
2021/11/05 06:35:10;;;;;;;10.50;7.93;;;6.90;99.90;;;;;;5034956;28;20200;-93
2021/11/05 06:37:37;;;;;;;8.80;8.00;;;7.10;99.90;;;;;;5036030;28;20203;-93
2021/11/05 06:40:05;;;;;;;8.97;8.17;;;7.10;99.90;;;;;;5038347;28;20192;-92
2021/11/05 06:42:31;;;;;;;8.00;7.30;;;7.10;99.90;;;;;;5019176;28;20244;-92
2021/11/05 06:44:57;;;;;;;10.07;8.20;;;7.10;99.90;;;;;;5043434;28;20215;-93
2021/11/05 06:47:22;;;;;;;10.80;8.33;;;7.00;99.90;;;;;;5015579;28;20662;-93
2021/11/05 06:49:48;;;;;;;9.73;8.73;;;7.20;99.90;;;;;;5019998;28;20189;-92
2021/11/05 06:52:14;;;;;;;9.30;8.47;;;7.10;99.90;;;;;;5027502;28;20212;-93
2021/11/05 06:54:40;;;;;;;8.77;7.97;;;7.10;99.90;;;;;;5036402;28;20185;-93
2021/11/05 06:57:07;;;;;;;9.07;8.20;;;7.10;99.90;;;;;;5050944;28;20251;-93
2021/11/05 06:59:34;;;;;;;9.03;8.13;;;7.20;99.90;;;;;;5037812;28;20191;-92
2021/11/05 07:02:00;;;;;;;8.70;7.80;;;7.30;99.90;;;;;;5032235;28;20243;-92
2021/11/05 07:04:25;;;;;;;9.60;8.00;;;7.30;99.90;;;;;;5048974;28;20184;-92
2021/11/05 07:06:53;;;;;;;9.13;8.33;;;7.20;99.90;;;;;;5023115;28;20197;-93
2021/11/05 07:09:19;;;;;;;8.97;8.07;;;7.30;99.90;;;;;;5049757;28;20196;-93
2021/11/05 07:11:45;;;;;;;8.03;7.33;;;7.40;99.90;;;;;;5013032;28;20200;-93
2021/11/05 07:14:12;;;;;;;8.70;7.83;;;7.50;99.90;;;;;;5019863;28;20693;-93
2021/11/05 07:16:38;;;;;;;8.80;8.10;;;7.40;99.90;;;;;;5031010;28;20726;-92
2021/11/05 07:19:07;;;;;;;8.43;7.73;;;7.40;99.90;;;;;;5035716;28;20389;-93
2021/11/05 07:21:34;;;;;;;8.60;7.70;;;7.30;99.90;;;;;;5032623;28;20258;-92
2021/11/05 07:24:01;;;;;;;8.60;7.80;;;7.30;99.90;;;;;;5031498;28;20208;-93
2021/11/05 07:26:37;;;;;;;8.97;8.10;;;7.20;99.90;;;;;;5031301;28;20833;-92
2021/11/05 07:29:06;;;;;;;10.33;8.37;;;7.20;99.90;;;;;;5037626;28;20726;-93
2021/11/05 07:31:32;;;;;;;9.03;8.23;;;7.30;99.90;;;;;;5038737;28;20211;-93
2021/11/05 07:33:58;;;;;;;7.80;7.10;;;7.40;99.90;;;;;;5050833;28;20177;-93
2021/11/05 07:36:24;;;;;;;9.17;7.70;;;7.40;99.90;;;;;;5031503;28;20256;-93
2021/11/05 07:38:50;;;;;;;8.23;7.53;;;7.50;99.90;;;;;;5038084;28;20195;-92
2021/11/05 07:41:15;;;;;;;8.73;7.93;;;7.60;99.90;;;;;;5035003;28;20221;-93
2021/11/05 07:43:41;;;;;;;8.77;7.90;;;7.50;99.90;;;;;;5039565;28;20188;-92
2021/11/05 07:46:07;;;;;;;8.83;8.00;;;7.50;99.90;;;;;;5034621;28;20209;-93
2021/11/05 07:48:33;;;;;;;8.43;7.73;;;7.40;99.90;;;;;;5048311;28;20176;-93
2021/11/05 07:50:59;;;;;;;8.17;7.43;;;7.40;99.90;;;;;;4999028;28;20274;-92
2021/11/05 07:53:25;;;;;;;7.83;6.97;;;7.50;99.90;;;;;;5018798;28;20424;-94
2021/11/05 07:55:51;;;;;;;8.63;7.83;;;7.50;99.90;;;;;;5035627;28;20184;-93
2021/11/05 07:58:16;;;;;;;8.10;7.40;;;7.50;99.90;;;;;;5033008;28;20195;-93
2021/11/05 08:00:42;;;;;;;8.73;8.03;;;7.40;99.90;;;;;;5040341;28;20188;-91
2021/11/05 08:03:08;;;;;;;8.83;8.00;;;7.30;99.90;;;;;;5031429;28;20299;-92
2021/11/05 08:05:34;;;;;;;9.70;8.80;;;7.40;99.90;;;;;;5035784;28;20667;-93
2021/11/05 08:08:00;;;;;;;9.07;8.27;;;7.30;99.90;;;;;;5057178;28;20639;-92
2021/11/05 08:10:25;;;;;;;9.87;7.93;;;7.50;99.90;;;;;;5047548;28;20205;-93
2021/11/05 08:12:52;;;;;;;9.93;8.47;;;7.50;99.90;;;;;;5010522;28;20220;-92
2021/11/05 08:15:22;;;;;;;8.67;7.87;;;7.60;99.90;;;;;;5019724;28;20188;-92
2021/11/05 08:17:48;;;;;;;9.07;8.23;;;7.50;99.90;;;;;;5028464;28;20204;-93
2021/11/05 08:20:15;;;;;;;9.13;8.33;;;7.40;99.90;;;;;;5037957;28;20230;-93
2021/11/05 08:22:43;;;;;;;8.60;7.80;;;7.50;99.90;;;;;;5037806;28;20204;-93
2021/11/05 08:25:10;;;;;;;8.60;7.90;;;7.60;99.90;;;;;;5056358;28;20355;-93
2021/11/05 08:27:37;;;;;;;8.93;8.03;;;7.70;99.90;;;;;;5040494;28;20208;-93
2021/11/05 08:30:12;;;;;;;8.77;8.03;;;7.70;99.90;;;;;;5038961;28;20252;-93
2021/11/05 08:32:38;;;;;;;9.20;8.40;;;7.80;99.90;;;;;;5055650;28;20773;-93
2021/11/05 08:35:06;;;;;;;9.87;8.97;;;7.90;99.90;;;;;;5036992;28;20203;-94
2021/11/05 08:37:32;;;;;;;9.53;8.53;;;8.00;99.90;;;;;;5050682;28;20245;-94
2021/11/05 08:39:57;;;;;;;8.90;7.97;;;8.10;99.90;;;;;;5039887;28;20282;-94
2021/11/05 08:42:24;;;;;;;8.97;8.17;;;8.10;99.90;;;;;;5020928;28;20219;-94
2021/11/05 08:44:50;;;;;;;9.70;8.70;;;8.20;99.90;;;;;;5041618;28;20712;-94
2021/11/05 08:47:15;;;;;;;9.93;9.00;;;8.20;99.90;;;;;;5053834;28;20259;-91
2021/11/05 08:49:41;;;;;;;10.03;9.13;;;8.10;99.90;;;;;;5033835;28;20211;-92
2021/11/05 08:52:07;;;;;;;9.63;8.73;;;7.90;99.90;;;;;;5049905;28;20302;-92
2021/11/05 08:54:33;;;;;;;10.00;9.10;;;8.00;99.90;;;;;;5020577;28;20200;-92
2021/11/05 08:56:59;;;;;;;9.63;8.83;;;8.00;99.90;;;;;;5030914;28;20180;-93
2021/11/05 08:59:25;;;;;;;9.47;8.60;;;8.10;99.90;;;;;;5026499;28;20196;-92
2021/11/05 09:01:51;;;;;;;8.80;8.07;;;8.20;99.90;;;;;;5045569;28;20208;-92
2021/11/05 09:04:17;;;;;;;8.67;7.93;;;8.10;99.90;;;;;;5055325;28;20271;-91
2021/11/05 09:06:45;;;;;;;10.03;9.13;;;8.00;99.90;;;;;;5027930;28;20532;-93
2021/11/05 09:09:10;;;;;;;9.33;8.50;;;8.00;99.90;;;;;;5054369;28;20397;-93
2021/11/05 09:11:37;;;;;;;9.03;8.13;;;8.00;99.90;;;;;;5055970;28;20701;-92
2021/11/05 09:14:03;;;;;;;9.47;8.60;;;8.30;99.90;;;;;;5053235;28;20199;-92
2021/11/05 09:16:29;;;;;;;8.93;8.10;;;8.10;99.90;;;;;;5032906;28;20207;-92
2021/11/05 09:18:57;;;;;;;9.87;8.97;;;8.10;99.90;;;;;;5015535;28;20196;-92
2021/11/05 09:21:22;;;;;;;9.80;8.90;;;8.00;99.90;;;;;;5055339;28;20701;-92
2021/11/05 09:23:48;;;;;;;10.17;8.77;;;8.00;99.90;;;;;;5032141;28;20189;-92
2021/11/05 09:26:15;;;;;;;10.57;9.50;;;8.10;99.90;;;;;;5030648;28;20220;-93
2021/11/05 09:28:41;;;;;;;9.90;9.00;;;8.10;99.90;;;;;;5032470;28;20189;-93
2021/11/05 09:31:06;;;;;;;9.80;8.80;;;8.20;99.90;;;;;;5062932;28;20595;-93
2021/11/05 09:33:32;;;;;;;10.10;9.17;;;8.10;99.90;;;;;;5043410;28;20211;-92
2021/11/05 09:35:58;;;;;;;10.13;9.23;;;8.20;99.90;;;;;;5051324;28;20254;-93
2021/11/05 09:38:24;;;;;;;10.33;9.33;;;8.20;99.90;;;;;;5064968;28;20206;-93
2021/11/05 09:40:51;;;;;;;10.03;8.93;;;8.20;99.90;;;;;;5042001;28;20201;-93
2021/11/05 09:43:18;;;;;;;9.97;8.67;;;8.20;99.90;;;;;;5053336;28;20287;-93
2021/11/05 09:45:44;;;;;;;10.30;9.33;;;8.30;99.90;;;;;;5036507;28;20315;-92
2021/11/05 09:48:09;;;;;;;8.93;8.13;;;8.60;99.90;;;;;;5053932;28;20279;-93
2021/11/05 09:50:37;;;;;;;10.23;9.23;;;8.70;99.90;;;;;;5052912;28;20616;-93
2021/11/05 09:53:03;;;;;;;10.40;9.10;;;8.50;99.90;;;;;;5037655;28;20287;-93
2021/11/05 09:55:31;;;;;;;9.93;9.00;;;8.40;99.90;;;;;;5052253;28;20701;-93
2021/11/05 09:57:56;;;;;;;9.73;8.93;;;8.50;99.90;;;;;;5037084;28;20559;-92
2021/11/05 10:00:26;;;;;;;10.37;8.73;;;8.70;99.90;;;;;;5039308;28;20192;-92
2021/11/05 10:02:52;;;;;;;9.10;8.30;;;8.80;99.90;;;;;;5032571;28;20212;-93
2021/11/05 10:05:19;;;;;;;9.97;8.97;;;8.80;99.90;;;;;;5034002;28;20216;-92
2021/11/05 10:07:53;;;;;;;10.40;9.00;;;8.80;99.90;;;;;;5026871;28;20192;-93
2021/11/05 10:10:30;;;;;;;9.43;8.47;;;8.80;99.90;;;;;;5038732;28;20245;-93
2021/11/05 10:13:05;;;;;;;9.90;8.90;;;8.80;99.90;;;;;;5054303;28;20291;-93
2021/11/05 10:15:41;;;;;;;10.97;9.47;;;8.90;99.90;;;;;;5050978;28;20591;-93
2021/11/05 10:18:15;;;;;;;9.63;8.73;;;8.90;99.90;;;;;;5036133;28;20207;-93
2021/11/05 10:20:43;;;;;;;10.40;9.40;;;8.80;99.90;;;;;;5036870;28;20192;-91
2021/11/05 10:23:09;;;;;;;10.13;9.13;;;8.90;99.90;;;;;;5022431;28;20231;-93
2021/11/05 10:25:52;;;;;;;10.20;9.30;;;8.80;99.90;;;;;;5019441;28;20224;-93
2021/11/05 10:28:25;;;;;;;10.70;9.80;;;9.20;99.80;;;;;;5068197;28;20176;-93
2021/11/05 10:30:59;;;;;;;10.83;9.50;;;9.00;99.90;;;;;;5052863;28;20179;-92
2021/11/05 10:33:30;;;;;;;11.40;10.20;;;8.80;99.90;;;;;;5035156;28;20192;-93
2021/11/05 10:35:58;;;;;;;11.03;9.90;;;8.80;99.90;;;;;;5047196;28;20201;-93
2021/11/05 10:38:23;;;;;;;9.63;8.57;;;9.00;99.90;;;;;;5053704;28;20774;-92
2021/11/05 10:41:01;;;;;;;10.47;9.47;;;9.10;99.90;;;;;;5045416;28;20177;-92
2021/11/05 10:43:31;;;;;;;10.80;9.70;;;9.20;99.90;;;;;;5044223;28;20721;-93
2021/11/05 10:45:57;;;;;;;12.23;9.80;;;9.40;98.30;;;;;;5022901;28;20217;-93
2021/11/05 10:48:26;;;;;;;11.87;9.83;;;9.60;97.50;;;;;;5046275;28;20424;-93
2021/11/05 10:51:04;;;;;;;14.70;9.60;;;9.60;97.60;;;;;;5045663;28;20184;-93
2021/11/05 10:53:38;;;;;;;10.70;9.57;;;9.30;99.30;;;;;;5053465;28;20253;-92
2021/11/05 10:56:12;;;;;;;11.30;10.30;;;9.30;98.40;;;;;;5036211;28;20199;-93
2021/11/05 10:58:51;;;;;;;11.43;10.43;;;9.50;98.00;;;;;;5051708;28;20267;-93
2021/11/05 11:01:20;;;;;;;10.97;9.97;;;9.80;97.30;;;;;;5051639;28;20234;-93
2021/11/05 11:03:58;;;;;;;10.13;9.23;;;9.80;96.70;;;;;;5020443;28;20230;-93
2021/11/05 11:06:30;;;;;;;10.67;9.77;;;10.10;96.20;;;;;;5051784;28;20215;-93
2021/11/05 11:09:08;;;;;;;10.37;9.37;;;10.20;94.30;;;;;;5051037;28;20215;-93
2021/11/05 11:11:40;;;;;;;9.93;9.03;;;10.30;92.30;;;;;;5021820;28;20669;-93
2021/11/05 11:14:16;;;;;;;10.47;9.47;;;10.10;94.70;;;;;;5035050;28;20200;-93
2021/11/05 11:16:48;;;;;;;16.47;14.87;;;9.80;94.90;;;;;;5053015;28;20179;-93
2021/11/05 11:19:17;;;;;;;14.83;13.37;;;9.60;96.20;;;;;;5026576;28;20184;-93
2021/11/05 11:21:54;;;;;;;13.67;12.47;;;9.70;95.50;;;;;;5051443;28;20206;-93
2021/11/05 11:24:26;;;;;;;14.07;12.60;;;9.80;95.80;;;;;;5028746;28;20384;-93
2021/11/05 11:26:52;;;;;;;10.67;9.77;;;10.10;93.20;;;;;;5031080;28;20789;-93
2021/11/05 11:29:23;;;;;;;11.60;9.83;;;10.20;93.10;;;;;;5033005;28;20279;-94
2021/11/05 11:31:51;;;;;;;11.60;10.07;;;10.20;93.20;;;;;;5020184;28;20250;-93
2021/11/05 11:34:18;;;;;;;10.63;9.73;;;9.90;94.30;;;;;;5037030;28;20184;-93
2021/11/05 11:36:48;;;;;;;12.53;10.50;;;10.00;93.60;;;;;;5020111;28;20193;-93
2021/11/05 11:39:17;;;;;;;10.40;9.40;;;9.90;93.70;;;;;;5022284;28;20202;-93
2021/11/05 11:41:43;;;;;;;47.43;42.23;;;9.90;94.60;;;;;;5015804;28;20210;-93
2021/11/05 11:44:13;;;;;;;10.97;10.07;;;10.20;91.30;;;;;;5034970;28;20201;-93
2021/11/05 11:47:07;;;;;;;10.87;9.83;;;10.20;93.30;;;;;;5019726;28;20575;-94
2021/11/05 11:49:38;;;;;;;10.20;9.23;;;10.20;94.50;;;;;;5032537;28;20668;-93
2021/11/05 11:52:07;;;;;;;16.83;15.17;;;10.40;89.70;;;;;;5048410;28;20203;-93
2021/11/05 11:54:36;;;;;;;10.57;9.67;;;10.60;88.60;;;;;;5034689;28;20661;-94
2021/11/05 11:57:13;;;;;;;92.37;83.07;;;10.60;89.90;;;;;;5053757;28;20218;-94
2021/11/05 11:59:40;;;;;;;10.53;9.60;;;10.80;87.70;;;;;;5033364;28;20190;-93
2021/11/05 12:02:36;;;;;;;9.30;8.40;;;10.90;86.80;;;;;;5018892;28;20279;-93
2021/11/05 12:05:21;;;;;;;11.23;10.23;;;10.80;87.00;;;;;;5035179;28;20227;-93
2021/11/05 12:08:27;;;;;;;11.70;10.70;;;10.60;88.00;;;;;;5033136;28;20223;-93
2021/11/05 12:11:09;;;;;;;9.70;8.90;;;10.60;88.80;;;;;;5040172;28;20221;-93
2021/11/05 12:13:35;;;;;;;10.67;9.67;;;10.70;89.30;;;;;;5060786;28;20744;-94
2021/11/05 12:16:18;;;;;;;10.20;9.40;;;10.70;90.20;;;;;;5028315;28;20198;-92
2021/11/05 12:18:57;;;;;;;9.80;9.00;;;10.80;89.40;;;;;;5050911;28;20190;-93
2021/11/05 12:21:30;;;;;;;9.63;8.73;;;10.80;87.80;;;;;;5033141;28;20516;-94
2021/11/05 12:24:27;;;;;;;9.17;8.37;;;10.80;87.20;;;;;;5017411;28;20233;-93
2021/11/05 12:26:54;;;;;;;8.83;8.03;;;10.70;87.60;;;;;;5021938;28;20210;-93
2021/11/05 12:29:32;;;;;;;8.77;8.07;;;10.70;87.70;;;;;;5032013;28;20198;-93
2021/11/05 12:31:59;;;;;;;10.10;9.20;;;10.50;88.90;;;;;;5036194;28;20294;-93
2021/11/05 12:34:32;;;;;;;8.97;8.27;;;10.20;90.50;;;;;;5051851;28;20238;-93
2021/11/05 12:36:58;;;;;;;9.73;8.93;;;10.00;90.70;;;;;;5040243;28;20189;-93
2021/11/05 12:39:42;;;;;;;8.87;7.97;;;9.90;91.90;;;;;;5015868;28;20252;-93
2021/11/05 12:42:15;;;;;;;21.43;19.53;;;9.90;91.10;;;;;;5038329;28;20202;-94
2021/11/05 12:45:00;;;;;;;10.30;9.43;;;9.90;92.00;;;;;;5017771;28;20191;-93
2021/11/05 12:47:45;;;;;;;10.03;9.13;;;10.00;92.50;;;;;;5033533;28;20221;-93
2021/11/05 12:50:14;;;;;;;10.10;9.20;;;10.40;89.30;;;;;;5031994;28;20245;-93
2021/11/05 12:52:40;;;;;;;10.03;9.13;;;10.50;89.50;;;;;;5054898;28;20676;-93
2021/11/05 12:55:06;;;;;;;11.17;10.17;;;10.40;91.00;;;;;;5037351;28;20564;-94
2021/11/05 12:57:32;;;;;;;10.97;10.07;;;10.30;91.80;;;;;;5040960;28;20216;-93